sensor_id;sensor_type;location;lat;lon;timestamp;P1;durP1;ratioP1;P2;durP2;ratioP2
944;SDS011;459;48.676;9.034;2022-08-21T00:00:18;7.23;;;3.10;;
944;SDS011;459;48.676;9.034;2022-08-21T00:02:51;3.10;;;2.70;;
944;SDS011;459;48.676;9.034;2022-08-21T00:05:17;3.10;;;2.80;;
944;SDS011;459;48.676;9.034;2022-08-21T00:07:42;3.10;;;2.80;;
944;SDS011;459;48.676;9.034;2022-08-21T00:10:08;4.20;;;3.10;;
944;SDS011;459;48.676;9.034;2022-08-21T00:12:33;3.20;;;2.80;;
944;SDS011;459;48.676;9.034;2022-08-21T00:14:58;5.43;;;3.83;;
944;SDS011;459;48.676;9.034;2022-08-21T00:17:24;3.20;;;2.90;;
944;SDS011;459;48.676;9.034;2022-08-21T00:19:49;3.20;;;2.90;;
944;SDS011;459;48.676;9.034;2022-08-21T00:22:14;3.23;;;3.03;;
944;SDS011;459;48.676;9.034;2022-08-21T00:24:39;2.67;;;2.47;;
944;SDS011;459;48.676;9.034;2022-08-21T00:27:04;3.00;;;2.73;;
944;SDS011;459;48.676;9.034;2022-08-21T00:29:30;3.90;;;3.17;;
944;SDS011;459;48.676;9.034;2022-08-21T00:31:55;5.00;;;2.60;;
944;SDS011;459;48.676;9.034;2022-08-21T00:34:20;3.60;;;3.30;;
944;SDS011;459;48.676;9.034;2022-08-21T00:36:49;3.70;;;3.03;;
944;SDS011;459;48.676;9.034;2022-08-21T00:39:15;4.67;;;3.47;;
944;SDS011;459;48.676;9.034;2022-08-21T00:41:41;5.13;;;2.50;;
944;SDS011;459;48.676;9.034;2022-08-21T00:44:07;3.50;;;2.93;;
944;SDS011;459;48.676;9.034;2022-08-21T00:46:33;4.40;;;3.50;;
944;SDS011;459;48.676;9.034;2022-08-21T00:48:59;4.00;;;3.40;;
944;SDS011;459;48.676;9.034;2022-08-21T00:51:34;3.40;;;3.20;;
944;SDS011;459;48.676;9.034;2022-08-21T00:54:01;4.43;;;3.10;;
944;SDS011;459;48.676;9.034;2022-08-21T00:56:27;3.10;;;2.80;;
944;SDS011;459;48.676;9.034;2022-08-21T00:58:53;2.90;;;2.67;;
944;SDS011;459;48.676;9.034;2022-08-21T01:01:19;4.90;;;2.83;;
944;SDS011;459;48.676;9.034;2022-08-21T01:03:45;3.03;;;2.83;;
944;SDS011;459;48.676;9.034;2022-08-21T01:06:11;3.37;;;2.70;;
944;SDS011;459;48.676;9.034;2022-08-21T01:08:36;5.20;;;3.17;;
944;SDS011;459;48.676;9.034;2022-08-21T01:11:02;3.73;;;3.40;;
944;SDS011;459;48.676;9.034;2022-08-21T01:13:28;3.47;;;3.07;;
944;SDS011;459;48.676;9.034;2022-08-21T01:15:56;3.30;;;3.00;;
944;SDS011;459;48.676;9.034;2022-08-21T01:18:22;6.10;;;3.10;;
944;SDS011;459;48.676;9.034;2022-08-21T01:23:43;3.40;;;3.10;;
944;SDS011;459;48.676;9.034;2022-08-21T01:26:09;3.53;;;3.23;;
944;SDS011;459;48.676;9.034;2022-08-21T01:28:37;2.73;;;2.53;;
944;SDS011;459;48.676;9.034;2022-08-21T01:31:03;3.60;;;3.30;;
944;SDS011;459;48.676;9.034;2022-08-21T01:33:29;2.93;;;2.73;;
944;SDS011;459;48.676;9.034;2022-08-21T01:35:54;3.97;;;2.77;;
944;SDS011;459;48.676;9.034;2022-08-21T01:38:20;3.40;;;3.10;;
944;SDS011;459;48.676;9.034;2022-08-21T01:40:45;4.50;;;3.30;;
944;SDS011;459;48.676;9.034;2022-08-21T01:43:11;3.80;;;3.33;;
944;SDS011;459;48.676;9.034;2022-08-21T01:45:36;3.70;;;3.40;;
944;SDS011;459;48.676;9.034;2022-08-21T01:48:01;4.50;;;3.03;;
944;SDS011;459;48.676;9.034;2022-08-21T01:50:27;4.20;;;3.33;;
944;SDS011;459;48.676;9.034;2022-08-21T01:52:52;3.77;;;3.47;;
944;SDS011;459;48.676;9.034;2022-08-21T01:55:17;3.13;;;2.60;;
944;SDS011;459;48.676;9.034;2022-08-21T01:57:43;3.30;;;3.00;;
944;SDS011;459;48.676;9.034;2022-08-21T02:00:10;3.00;;;2.70;;
944;SDS011;459;48.676;9.034;2022-08-21T02:02:36;4.30;;;3.90;;
944;SDS011;459;48.676;9.034;2022-08-21T02:05:01;4.60;;;3.57;;
944;SDS011;459;48.676;9.034;2022-08-21T02:07:34;3.37;;;3.07;;
944;SDS011;459;48.676;9.034;2022-08-21T02:10:00;4.23;;;3.70;;
944;SDS011;459;48.676;9.034;2022-08-21T02:12:25;3.90;;;3.60;;
944;SDS011;459;48.676;9.034;2022-08-21T02:14:50;3.63;;;3.30;;
944;SDS011;459;48.676;9.034;2022-08-21T02:17:15;3.33;;;3.03;;
944;SDS011;459;48.676;9.034;2022-08-21T02:19:40;3.23;;;2.90;;
944;SDS011;459;48.676;9.034;2022-08-21T02:22:05;4.57;;;3.23;;
944;SDS011;459;48.676;9.034;2022-08-21T02:24:31;3.53;;;3.23;;
944;SDS011;459;48.676;9.034;2022-08-21T02:26:56;4.07;;;3.63;;
944;SDS011;459;48.676;9.034;2022-08-21T02:29:21;3.30;;;3.00;;
944;SDS011;459;48.676;9.034;2022-08-21T02:31:46;3.93;;;3.47;;
944;SDS011;459;48.676;9.034;2022-08-21T02:34:11;3.57;;;3.27;;
944;SDS011;459;48.676;9.034;2022-08-21T02:36:37;3.60;;;3.30;;
944;SDS011;459;48.676;9.034;2022-08-21T02:39:02;5.57;;;3.70;;
944;SDS011;459;48.676;9.034;2022-08-21T02:41:27;3.70;;;3.37;;
944;SDS011;459;48.676;9.034;2022-08-21T02:43:52;4.97;;;3.10;;
944;SDS011;459;48.676;9.034;2022-08-21T02:46:18;4.47;;;3.57;;
944;SDS011;459;48.676;9.034;2022-08-21T02:48:44;4.20;;;3.80;;
944;SDS011;459;48.676;9.034;2022-08-21T02:51:13;6.97;;;3.50;;
944;SDS011;459;48.676;9.034;2022-08-21T02:53:39;3.70;;;3.40;;
944;SDS011;459;48.676;9.034;2022-08-21T02:56:07;4.73;;;3.57;;
944;SDS011;459;48.676;9.034;2022-08-21T02:58:34;3.67;;;3.37;;
944;SDS011;459;48.676;9.034;2022-08-21T03:01:00;5.27;;;3.20;;
944;SDS011;459;48.676;9.034;2022-08-21T03:03:25;5.50;;;3.80;;
944;SDS011;459;48.676;9.034;2022-08-21T03:05:51;4.30;;;3.70;;
944;SDS011;459;48.676;9.034;2022-08-21T03:08:17;3.53;;;3.23;;
944;SDS011;459;48.676;9.034;2022-08-21T03:10:44;4.30;;;3.90;;
944;SDS011;459;48.676;9.034;2022-08-21T03:13:10;4.80;;;3.37;;
944;SDS011;459;48.676;9.034;2022-08-21T03:15:35;4.03;;;3.63;;
944;SDS011;459;48.676;9.034;2022-08-21T03:18:01;5.30;;;3.73;;
944;SDS011;459;48.676;9.034;2022-08-21T03:20:26;4.53;;;3.50;;
944;SDS011;459;48.676;9.034;2022-08-21T03:22:53;4.37;;;3.43;;
944;SDS011;459;48.676;9.034;2022-08-21T03:25:19;3.70;;;3.40;;
944;SDS011;459;48.676;9.034;2022-08-21T03:27:45;3.83;;;3.53;;
944;SDS011;459;48.676;9.034;2022-08-21T03:30:12;5.60;;;3.73;;
944;SDS011;459;48.676;9.034;2022-08-21T03:32:37;3.30;;;3.07;;
944;SDS011;459;48.676;9.034;2022-08-21T03:35:03;4.30;;;3.90;;
944;SDS011;459;48.676;9.034;2022-08-21T03:37:28;8.40;;;4.17;;
944;SDS011;459;48.676;9.034;2022-08-21T03:39:53;3.60;;;3.30;;
944;SDS011;459;48.676;9.034;2022-08-21T03:42:19;4.87;;;4.10;;
944;SDS011;459;48.676;9.034;2022-08-21T03:44:44;3.80;;;3.50;;
944;SDS011;459;48.676;9.034;2022-08-21T03:47:09;4.10;;;3.30;;
944;SDS011;459;48.676;9.034;2022-08-21T03:49:34;4.20;;;3.63;;
944;SDS011;459;48.676;9.034;2022-08-21T03:52:00;3.77;;;3.47;;
944;SDS011;459;48.676;9.034;2022-08-21T03:54:25;3.63;;;3.33;;
944;SDS011;459;48.676;9.034;2022-08-21T03:56:50;5.83;;;3.70;;
944;SDS011;459;48.676;9.034;2022-08-21T03:59:16;3.80;;;3.00;;
944;SDS011;459;48.676;9.034;2022-08-21T04:01:50;4.40;;;3.70;;
944;SDS011;459;48.676;9.034;2022-08-21T04:04:16;5.20;;;3.63;;
944;SDS011;459;48.676;9.034;2022-08-21T04:06:41;6.33;;;4.53;;
944;SDS011;459;48.676;9.034;2022-08-21T04:09:06;3.67;;;3.33;;
944;SDS011;459;48.676;9.034;2022-08-21T04:11:31;5.53;;;4.00;;
944;SDS011;459;48.676;9.034;2022-08-21T04:13:57;3.07;;;2.87;;
944;SDS011;459;48.676;9.034;2022-08-21T04:16:22;4.00;;;3.47;;
944;SDS011;459;48.676;9.034;2022-08-21T04:18:47;4.40;;;3.80;;
944;SDS011;459;48.676;9.034;2022-08-21T04:21:12;3.77;;;3.47;;
944;SDS011;459;48.676;9.034;2022-08-21T04:23:37;4.03;;;3.63;;
944;SDS011;459;48.676;9.034;2022-08-21T04:26:02;4.87;;;4.33;;
944;SDS011;459;48.676;9.034;2022-08-21T04:28:28;4.43;;;4.03;;
944;SDS011;459;48.676;9.034;2022-08-21T04:30:53;3.90;;;3.50;;
944;SDS011;459;48.676;9.034;2022-08-21T04:33:19;4.83;;;3.60;;
944;SDS011;459;48.676;9.034;2022-08-21T04:35:44;4.10;;;3.20;;
944;SDS011;459;48.676;9.034;2022-08-21T04:38:09;4.63;;;4.17;;
944;SDS011;459;48.676;9.034;2022-08-21T04:40:35;4.07;;;3.77;;
944;SDS011;459;48.676;9.034;2022-08-21T04:43:02;4.40;;;3.60;;
944;SDS011;459;48.676;9.034;2022-08-21T04:45:31;3.53;;;3.23;;
944;SDS011;459;48.676;9.034;2022-08-21T04:47:58;3.97;;;3.67;;
944;SDS011;459;48.676;9.034;2022-08-21T04:50:24;4.90;;;3.97;;
944;SDS011;459;48.676;9.034;2022-08-21T04:52:50;4.03;;;3.73;;
944;SDS011;459;48.676;9.034;2022-08-21T04:55:16;4.13;;;3.83;;
944;SDS011;459;48.676;9.034;2022-08-21T04:57:42;5.07;;;3.83;;
944;SDS011;459;48.676;9.034;2022-08-21T05:00:07;4.47;;;3.87;;
944;SDS011;459;48.676;9.034;2022-08-21T05:02:36;5.07;;;4.30;;
944;SDS011;459;48.676;9.034;2022-08-21T05:05:02;4.47;;;4.03;;
944;SDS011;459;48.676;9.034;2022-08-21T05:07:28;5.43;;;4.23;;
944;SDS011;459;48.676;9.034;2022-08-21T05:09:54;4.13;;;3.77;;
944;SDS011;459;48.676;9.034;2022-08-21T05:12:19;4.60;;;3.70;;
944;SDS011;459;48.676;9.034;2022-08-21T05:14:45;3.93;;;3.63;;
944;SDS011;459;48.676;9.034;2022-08-21T05:17:10;4.67;;;3.37;;
944;SDS011;459;48.676;9.034;2022-08-21T05:19:36;4.60;;;3.70;;
944;SDS011;459;48.676;9.034;2022-08-21T05:22:01;6.60;;;3.93;;
944;SDS011;459;48.676;9.034;2022-08-21T05:24:27;4.43;;;3.60;;
944;SDS011;459;48.676;9.034;2022-08-21T05:26:52;3.80;;;3.50;;
944;SDS011;459;48.676;9.034;2022-08-21T05:29:17;4.70;;;4.30;;
944;SDS011;459;48.676;9.034;2022-08-21T05:31:43;9.73;;;6.00;;
944;SDS011;459;48.676;9.034;2022-08-21T05:34:08;8.00;;;7.00;;
944;SDS011;459;48.676;9.034;2022-08-21T05:36:33;9.50;;;6.20;;
944;SDS011;459;48.676;9.034;2022-08-21T05:38:58;9.70;;;7.10;;
944;SDS011;459;48.676;9.034;2022-08-21T05:41:23;9.00;;;8.03;;
944;SDS011;459;48.676;9.034;2022-08-21T05:43:49;10.37;;;7.70;;
944;SDS011;459;48.676;9.034;2022-08-21T05:46:14;8.93;;;7.43;;
944;SDS011;459;48.676;9.034;2022-08-21T05:48:39;10.33;;;9.20;;
944;SDS011;459;48.676;9.034;2022-08-21T05:51:05;7.77;;;7.00;;
944;SDS011;459;48.676;9.034;2022-08-21T05:53:31;6.57;;;5.80;;
944;SDS011;459;48.676;9.034;2022-08-21T05:55:56;7.17;;;5.47;;
944;SDS011;459;48.676;9.034;2022-08-21T05:58:21;6.47;;;5.17;;
944;SDS011;459;48.676;9.034;2022-08-21T06:00:48;10.40;;;5.33;;
944;SDS011;459;48.676;9.034;2022-08-21T06:03:15;7.93;;;6.33;;
944;SDS011;459;48.676;9.034;2022-08-21T06:05:42;6.50;;;5.40;;
944;SDS011;459;48.676;9.034;2022-08-21T06:08:07;10.53;;;5.33;;
944;SDS011;459;48.676;9.034;2022-08-21T06:10:33;7.70;;;5.60;;
944;SDS011;459;48.676;9.034;2022-08-21T06:12:58;5.60;;;5.10;;
944;SDS011;459;48.676;9.034;2022-08-21T06:15:23;7.43;;;5.40;;
944;SDS011;459;48.676;9.034;2022-08-21T06:17:48;7.83;;;4.73;;
944;SDS011;459;48.676;9.034;2022-08-21T06:20:13;5.30;;;4.40;;
944;SDS011;459;48.676;9.034;2022-08-21T06:22:39;5.17;;;4.70;;
944;SDS011;459;48.676;9.034;2022-08-21T06:25:04;4.80;;;4.30;;
944;SDS011;459;48.676;9.034;2022-08-21T06:27:29;8.73;;;5.80;;
944;SDS011;459;48.676;9.034;2022-08-21T06:29:54;5.27;;;4.70;;
944;SDS011;459;48.676;9.034;2022-08-21T06:32:22;5.03;;;4.20;;
944;SDS011;459;48.676;9.034;2022-08-21T06:34:47;7.20;;;5.00;;
944;SDS011;459;48.676;9.034;2022-08-21T06:37:12;5.80;;;5.23;;
944;SDS011;459;48.676;9.034;2022-08-21T06:39:37;5.47;;;4.97;;
944;SDS011;459;48.676;9.034;2022-08-21T06:42:02;5.27;;;4.77;;
944;SDS011;459;48.676;9.034;2022-08-21T06:44:28;5.37;;;4.87;;
944;SDS011;459;48.676;9.034;2022-08-21T06:46:54;4.23;;;3.83;;
944;SDS011;459;48.676;9.034;2022-08-21T06:49:19;6.07;;;4.67;;
944;SDS011;459;48.676;9.034;2022-08-21T06:51:44;5.87;;;4.87;;
944;SDS011;459;48.676;9.034;2022-08-21T06:54:09;7.93;;;4.80;;
944;SDS011;459;48.676;9.034;2022-08-21T06:56:35;5.40;;;4.20;;
944;SDS011;459;48.676;9.034;2022-08-21T06:59:02;6.17;;;4.40;;
944;SDS011;459;48.676;9.034;2022-08-21T07:01:28;4.70;;;4.10;;
944;SDS011;459;48.676;9.034;2022-08-21T07:03:53;5.13;;;4.03;;
944;SDS011;459;48.676;9.034;2022-08-21T07:06:18;6.30;;;4.27;;
944;SDS011;459;48.676;9.034;2022-08-21T07:08:43;5.97;;;4.07;;
944;SDS011;459;48.676;9.034;2022-08-21T07:11:17;4.63;;;4.23;;
944;SDS011;459;48.676;9.034;2022-08-21T07:13:43;5.40;;;4.50;;
944;SDS011;459;48.676;9.034;2022-08-21T07:16:08;8.40;;;5.73;;
944;SDS011;459;48.676;9.034;2022-08-21T07:18:33;7.43;;;4.67;;
944;SDS011;459;48.676;9.034;2022-08-21T07:21:00;5.50;;;5.00;;
944;SDS011;459;48.676;9.034;2022-08-21T07:23:29;5.87;;;4.00;;
944;SDS011;459;48.676;9.034;2022-08-21T07:25:55;6.50;;;5.40;;
944;SDS011;459;48.676;9.034;2022-08-21T07:28:20;5.17;;;4.63;;
944;SDS011;459;48.676;9.034;2022-08-21T07:30:46;7.43;;;5.40;;
944;SDS011;459;48.676;9.034;2022-08-21T07:33:14;11.60;;;5.03;;
944;SDS011;459;48.676;9.034;2022-08-21T07:35:40;5.00;;;4.20;;
944;SDS011;459;48.676;9.034;2022-08-21T07:38:05;5.47;;;4.87;;
944;SDS011;459;48.676;9.034;2022-08-21T07:40:31;6.97;;;4.60;;
944;SDS011;459;48.676;9.034;2022-08-21T07:42:57;7.60;;;5.63;;
944;SDS011;459;48.676;9.034;2022-08-21T07:45:22;10.20;;;5.60;;
944;SDS011;459;48.676;9.034;2022-08-21T07:47:49;5.07;;;4.63;;
944;SDS011;459;48.676;9.034;2022-08-21T07:50:14;6.80;;;4.53;;
944;SDS011;459;48.676;9.034;2022-08-21T07:52:40;8.20;;;5.13;;
944;SDS011;459;48.676;9.034;2022-08-21T07:55:07;7.80;;;5.30;;
944;SDS011;459;48.676;9.034;2022-08-21T07:57:32;6.77;;;4.87;;
944;SDS011;459;48.676;9.034;2022-08-21T07:59:58;5.20;;;4.70;;
944;SDS011;459;48.676;9.034;2022-08-21T08:02:27;4.70;;;4.30;;
944;SDS011;459;48.676;9.034;2022-08-21T08:04:52;9.43;;;5.40;;
944;SDS011;459;48.676;9.034;2022-08-21T08:07:18;5.60;;;4.40;;
944;SDS011;459;48.676;9.034;2022-08-21T08:09:43;6.07;;;4.00;;
944;SDS011;459;48.676;9.034;2022-08-21T08:12:08;7.70;;;4.80;;
944;SDS011;459;48.676;9.034;2022-08-21T08:14:34;6.70;;;4.37;;
944;SDS011;459;48.676;9.034;2022-08-21T08:17:00;5.50;;;4.30;;
944;SDS011;459;48.676;9.034;2022-08-21T08:19:26;5.77;;;4.97;;
944;SDS011;459;48.676;9.034;2022-08-21T08:21:51;5.70;;;4.70;;
944;SDS011;459;48.676;9.034;2022-08-21T08:24:17;5.53;;;4.20;;
944;SDS011;459;48.676;9.034;2022-08-21T08:26:42;5.90;;;4.00;;
944;SDS011;459;48.676;9.034;2022-08-21T08:29:08;5.83;;;3.30;;
944;SDS011;459;48.676;9.034;2022-08-21T08:31:33;7.27;;;4.13;;
944;SDS011;459;48.676;9.034;2022-08-21T08:33:58;4.37;;;3.97;;
944;SDS011;459;48.676;9.034;2022-08-21T08:36:31;7.07;;;4.27;;
944;SDS011;459;48.676;9.034;2022-08-21T08:38:56;5.80;;;4.70;;
944;SDS011;459;48.676;9.034;2022-08-21T08:41:21;6.57;;;3.90;;
944;SDS011;459;48.676;9.034;2022-08-21T08:43:49;5.53;;;4.53;;
944;SDS011;459;48.676;9.034;2022-08-21T08:46:16;4.70;;;4.00;;
944;SDS011;459;48.676;9.034;2022-08-21T08:48:54;7.30;;;4.90;;
944;SDS011;459;48.676;9.034;2022-08-21T08:51:28;9.10;;;4.77;;
944;SDS011;459;48.676;9.034;2022-08-21T08:53:59;6.83;;;4.30;;
944;SDS011;459;48.676;9.034;2022-08-21T08:56:28;5.13;;;4.60;;
944;SDS011;459;48.676;9.034;2022-08-21T08:58:55;8.40;;;4.60;;
944;SDS011;459;48.676;9.034;2022-08-21T09:01:22;4.90;;;3.73;;
944;SDS011;459;48.676;9.034;2022-08-21T09:03:47;6.23;;;4.37;;
944;SDS011;459;48.676;9.034;2022-08-21T09:06:35;9.83;;;5.40;;
944;SDS011;459;48.676;9.034;2022-08-21T09:11:38;5.53;;;4.73;;
944;SDS011;459;48.676;9.034;2022-08-21T09:19:04;7.13;;;4.13;;
944;SDS011;459;48.676;9.034;2022-08-21T09:26:26;4.63;;;4.20;;
944;SDS011;459;48.676;9.034;2022-08-21T09:28:56;6.03;;;3.53;;
944;SDS011;459;48.676;9.034;2022-08-21T09:31:23;4.40;;;3.73;;
944;SDS011;459;48.676;9.034;2022-08-21T09:33:48;5.37;;;3.90;;
944;SDS011;459;48.676;9.034;2022-08-21T09:36:22;8.50;;;4.23;;
944;SDS011;459;48.676;9.034;2022-08-21T09:38:51;5.53;;;4.00;;
944;SDS011;459;48.676;9.034;2022-08-21T09:41:25;6.50;;;4.27;;
944;SDS011;459;48.676;9.034;2022-08-21T09:43:53;3.77;;;3.37;;
944;SDS011;459;48.676;9.034;2022-08-21T09:46:22;7.40;;;4.03;;
944;SDS011;459;48.676;9.034;2022-08-21T09:48:49;7.23;;;3.80;;
944;SDS011;459;48.676;9.034;2022-08-21T09:51:16;5.40;;;3.33;;
944;SDS011;459;48.676;9.034;2022-08-21T09:53:44;5.10;;;3.57;;
944;SDS011;459;48.676;9.034;2022-08-21T09:56:17;4.13;;;3.70;;
944;SDS011;459;48.676;9.034;2022-08-21T09:59:12;8.23;;;3.80;;
944;SDS011;459;48.676;9.034;2022-08-21T10:01:42;3.50;;;3.20;;
944;SDS011;459;48.676;9.034;2022-08-21T10:04:08;5.87;;;3.63;;
944;SDS011;459;48.676;9.034;2022-08-21T10:06:33;5.33;;;3.50;;
944;SDS011;459;48.676;9.034;2022-08-21T10:09:08;4.10;;;3.60;;
944;SDS011;459;48.676;9.034;2022-08-21T10:11:34;9.23;;;4.30;;
944;SDS011;459;48.676;9.034;2022-08-21T10:14:23;5.23;;;3.63;;
944;SDS011;459;48.676;9.034;2022-08-21T10:21:52;4.65;;;4.07;;
944;SDS011;459;48.676;9.034;2022-08-21T10:24:24;4.10;;;3.20;;
944;SDS011;459;48.676;9.034;2022-08-21T10:26:56;3.97;;;3.57;;
944;SDS011;459;48.676;9.034;2022-08-21T10:32:20;6.43;;;3.73;;
944;SDS011;459;48.676;9.034;2022-08-21T10:47:14;4.67;;;3.63;;
944;SDS011;459;48.676;9.034;2022-08-21T10:49:46;11.23;;;4.30;;
944;SDS011;459;48.676;9.034;2022-08-21T10:57:09;5.60;;;3.70;;
944;SDS011;459;48.676;9.034;2022-08-21T10:59:39;4.27;;;3.57;;
944;SDS011;459;48.676;9.034;2022-08-21T11:02:15;4.57;;;3.63;;
944;SDS011;459;48.676;9.034;2022-08-21T11:04:56;4.57;;;3.80;;
944;SDS011;459;48.676;9.034;2022-08-21T11:07:25;4.00;;;3.60;;
944;SDS011;459;48.676;9.034;2022-08-21T11:09:51;6.03;;;4.13;;
944;SDS011;459;48.676;9.034;2022-08-21T11:12:19;5.13;;;3.60;;
944;SDS011;459;48.676;9.034;2022-08-21T11:14:55;3.70;;;3.40;;
944;SDS011;459;48.676;9.034;2022-08-21T11:17:30;4.43;;;3.57;;
944;SDS011;459;48.676;9.034;2022-08-21T11:20:12;5.20;;;4.07;;
944;SDS011;459;48.676;9.034;2022-08-21T11:22:54;4.00;;;3.50;;
944;SDS011;459;48.676;9.034;2022-08-21T11:25:22;5.13;;;4.10;;
944;SDS011;459;48.676;9.034;2022-08-21T11:27:59;4.37;;;3.97;;
944;SDS011;459;48.676;9.034;2022-08-21T11:30:27;5.57;;;4.03;;
944;SDS011;459;48.676;9.034;2022-08-21T11:38:14;4.83;;;4.40;;
944;SDS011;459;48.676;9.034;2022-08-21T11:40:57;6.10;;;3.90;;
944;SDS011;459;48.676;9.034;2022-08-21T11:43:31;4.13;;;3.70;;
944;SDS011;459;48.676;9.034;2022-08-21T11:46:00;5.43;;;3.63;;
944;SDS011;459;48.676;9.034;2022-08-21T11:48:48;5.23;;;3.93;;
944;SDS011;459;48.676;9.034;2022-08-21T11:51:21;4.37;;;3.97;;
944;SDS011;459;48.676;9.034;2022-08-21T11:56:18;8.77;;;4.23;;
944;SDS011;459;48.676;9.034;2022-08-21T11:58:45;6.07;;;3.53;;
944;SDS011;459;48.676;9.034;2022-08-21T12:01:19;4.60;;;3.90;;
944;SDS011;459;48.676;9.034;2022-08-21T12:03:55;7.40;;;3.57;;
944;SDS011;459;48.676;9.034;2022-08-21T12:06:54;4.93;;;3.50;;
944;SDS011;459;48.676;9.034;2022-08-21T12:11:49;4.23;;;3.77;;
944;SDS011;459;48.676;9.034;2022-08-21T12:14:16;4.10;;;3.30;;
944;SDS011;459;48.676;9.034;2022-08-21T12:16:43;4.37;;;3.97;;
944;SDS011;459;48.676;9.034;2022-08-21T12:19:09;4.60;;;3.57;;
944;SDS011;459;48.676;9.034;2022-08-21T12:26:48;4.97;;;3.80;;
944;SDS011;459;48.676;9.034;2022-08-21T12:29:16;4.87;;;4.00;;
944;SDS011;459;48.676;9.034;2022-08-21T12:31:49;4.53;;;3.93;;
944;SDS011;459;48.676;9.034;2022-08-21T12:34:15;4.73;;;4.20;;
944;SDS011;459;48.676;9.034;2022-08-21T12:36:44;6.57;;;4.23;;
944;SDS011;459;48.676;9.034;2022-08-21T12:39:11;4.80;;;3.87;;
944;SDS011;459;48.676;9.034;2022-08-21T12:41:44;4.30;;;3.90;;
944;SDS011;459;48.676;9.034;2022-08-21T12:44:13;5.07;;;4.47;;
944;SDS011;459;48.676;9.034;2022-08-21T12:49:08;7.53;;;3.80;;
944;SDS011;459;48.676;9.034;2022-08-21T12:51:49;4.43;;;3.40;;
944;SDS011;459;48.676;9.034;2022-08-21T12:54:22;6.70;;;3.97;;
944;SDS011;459;48.676;9.034;2022-08-21T12:56:55;3.83;;;3.47;;
944;SDS011;459;48.676;9.034;2022-08-21T12:59:20;4.53;;;3.60;;
944;SDS011;459;48.676;9.034;2022-08-21T13:01:46;4.37;;;3.13;;
944;SDS011;459;48.676;9.034;2022-08-21T13:04:15;5.03;;;3.47;;
944;SDS011;459;48.676;9.034;2022-08-21T13:06:46;3.77;;;3.20;;
944;SDS011;459;48.676;9.034;2022-08-21T13:09:14;3.50;;;3.20;;
944;SDS011;459;48.676;9.034;2022-08-21T13:11:41;3.73;;;3.43;;
944;SDS011;459;48.676;9.034;2022-08-21T13:14:10;3.90;;;3.13;;
944;SDS011;459;48.676;9.034;2022-08-21T13:16:39;3.80;;;3.50;;
944;SDS011;459;48.676;9.034;2022-08-21T13:19:05;3.53;;;3.23;;
944;SDS011;459;48.676;9.034;2022-08-21T13:21:32;6.50;;;3.33;;
944;SDS011;459;48.676;9.034;2022-08-21T13:26:52;4.03;;;3.63;;
944;SDS011;459;48.676;9.034;2022-08-21T13:29:18;3.97;;;3.30;;
944;SDS011;459;48.676;9.034;2022-08-21T13:31:49;5.60;;;3.83;;
944;SDS011;459;48.676;9.034;2022-08-21T13:34:17;6.30;;;4.27;;
944;SDS011;459;48.676;9.034;2022-08-21T13:36:43;5.03;;;3.93;;
944;SDS011;459;48.676;9.034;2022-08-21T13:39:10;4.80;;;3.70;;
944;SDS011;459;48.676;9.034;2022-08-21T13:41:37;3.83;;;3.40;;
944;SDS011;459;48.676;9.034;2022-08-21T13:44:05;6.90;;;3.90;;
944;SDS011;459;48.676;9.034;2022-08-21T13:46:32;5.43;;;4.00;;
944;SDS011;459;48.676;9.034;2022-08-21T13:48:59;5.80;;;3.57;;
944;SDS011;459;48.676;9.034;2022-08-21T13:51:24;4.33;;;3.93;;
944;SDS011;459;48.676;9.034;2022-08-21T13:53:50;6.53;;;3.37;;
944;SDS011;459;48.676;9.034;2022-08-21T13:56:30;7.03;;;3.30;;
944;SDS011;459;48.676;9.034;2022-08-21T13:58:56;6.00;;;3.80;;
944;SDS011;459;48.676;9.034;2022-08-21T14:01:23;4.10;;;3.30;;
944;SDS011;459;48.676;9.034;2022-08-21T14:03:50;3.80;;;3.50;;
944;SDS011;459;48.676;9.034;2022-08-21T14:06:26;4.50;;;3.77;;
944;SDS011;459;48.676;9.034;2022-08-21T14:09:11;4.90;;;4.40;;
944;SDS011;459;48.676;9.034;2022-08-21T14:11:37;4.00;;;3.30;;
944;SDS011;459;48.676;9.034;2022-08-21T14:14:04;5.90;;;3.93;;
944;SDS011;459;48.676;9.034;2022-08-21T14:16:45;4.53;;;3.53;;
944;SDS011;459;48.676;9.034;2022-08-21T14:19:17;4.50;;;4.10;;
944;SDS011;459;48.676;9.034;2022-08-21T14:21:43;6.60;;;4.00;;
944;SDS011;459;48.676;9.034;2022-08-21T14:26:35;4.87;;;3.67;;
944;SDS011;459;48.676;9.034;2022-08-21T14:29:01;6.47;;;3.40;;
944;SDS011;459;48.676;9.034;2022-08-21T14:31:30;5.10;;;3.93;;
944;SDS011;459;48.676;9.034;2022-08-21T14:33:57;3.93;;;3.53;;
944;SDS011;459;48.676;9.034;2022-08-21T14:36:23;4.33;;;3.93;;
944;SDS011;459;48.676;9.034;2022-08-21T14:38:49;4.53;;;4.10;;
944;SDS011;459;48.676;9.034;2022-08-21T14:41:18;5.47;;;4.17;;
944;SDS011;459;48.676;9.034;2022-08-21T14:43:44;4.40;;;4.00;;
944;SDS011;459;48.676;9.034;2022-08-21T14:46:11;5.57;;;4.43;;
944;SDS011;459;48.676;9.034;2022-08-21T14:48:36;8.07;;;3.73;;
944;SDS011;459;48.676;9.034;2022-08-21T14:51:01;6.17;;;4.27;;
944;SDS011;459;48.676;9.034;2022-08-21T14:53:27;4.50;;;3.80;;
944;SDS011;459;48.676;9.034;2022-08-21T14:55:52;5.03;;;4.57;;
944;SDS011;459;48.676;9.034;2022-08-21T14:58:42;4.03;;;3.70;;
944;SDS011;459;48.676;9.034;2022-08-21T15:01:08;3.80;;;3.50;;
944;SDS011;459;48.676;9.034;2022-08-21T15:03:34;4.60;;;3.83;;
944;SDS011;459;48.676;9.034;2022-08-21T15:06:00;8.00;;;3.70;;
944;SDS011;459;48.676;9.034;2022-08-21T15:08:25;4.40;;;3.60;;
944;SDS011;459;48.676;9.034;2022-08-21T15:10:51;6.30;;;4.03;;
944;SDS011;459;48.676;9.034;2022-08-21T15:13:17;3.87;;;3.47;;
944;SDS011;459;48.676;9.034;2022-08-21T15:15:44;6.33;;;3.60;;
944;SDS011;459;48.676;9.034;2022-08-21T15:18:10;4.43;;;3.60;;
944;SDS011;459;48.676;9.034;2022-08-21T15:20:36;5.40;;;3.80;;
944;SDS011;459;48.676;9.034;2022-08-21T15:23:02;4.83;;;3.53;;
944;SDS011;459;48.676;9.034;2022-08-21T15:25:27;4.20;;;3.83;;
944;SDS011;459;48.676;9.034;2022-08-21T15:27:52;5.73;;;3.67;;
944;SDS011;459;48.676;9.034;2022-08-21T15:30:17;4.70;;;3.70;;
944;SDS011;459;48.676;9.034;2022-08-21T15:32:43;5.03;;;4.30;;
944;SDS011;459;48.676;9.034;2022-08-21T15:35:08;6.60;;;4.30;;
944;SDS011;459;48.676;9.034;2022-08-21T15:37:33;4.63;;;3.67;;
944;SDS011;459;48.676;9.034;2022-08-21T15:39:59;4.93;;;4.30;;
944;SDS011;459;48.676;9.034;2022-08-21T15:42:24;4.60;;;4.10;;
944;SDS011;459;48.676;9.034;2022-08-21T15:44:51;5.10;;;4.60;;
944;SDS011;459;48.676;9.034;2022-08-21T15:47:18;5.50;;;4.40;;
944;SDS011;459;48.676;9.034;2022-08-21T15:49:44;5.23;;;4.70;;
944;SDS011;459;48.676;9.034;2022-08-21T15:52:17;5.77;;;4.37;;
944;SDS011;459;48.676;9.034;2022-08-21T15:54:42;4.53;;;3.50;;
944;SDS011;459;48.676;9.034;2022-08-21T15:57:09;6.30;;;3.60;;
944;SDS011;459;48.676;9.034;2022-08-21T15:59:38;4.20;;;3.80;;
944;SDS011;459;48.676;9.034;2022-08-21T16:02:04;4.23;;;3.77;;
944;SDS011;459;48.676;9.034;2022-08-21T16:04:30;7.30;;;3.90;;
944;SDS011;459;48.676;9.034;2022-08-21T16:06:55;4.40;;;4.00;;
944;SDS011;459;48.676;9.034;2022-08-21T16:09:20;4.03;;;3.63;;
944;SDS011;459;48.676;9.034;2022-08-21T16:11:45;3.70;;;3.30;;
944;SDS011;459;48.676;9.034;2022-08-21T16:14:11;8.00;;;3.83;;
944;SDS011;459;48.676;9.034;2022-08-21T16:16:37;5.43;;;3.90;;
944;SDS011;459;48.676;9.034;2022-08-21T16:19:02;6.47;;;4.37;;
944;SDS011;459;48.676;9.034;2022-08-21T16:21:28;4.10;;;3.30;;
944;SDS011;459;48.676;9.034;2022-08-21T16:23:53;6.40;;;4.00;;
944;SDS011;459;48.676;9.034;2022-08-21T16:26:18;4.80;;;4.10;;
944;SDS011;459;48.676;9.034;2022-08-21T16:28:43;4.80;;;3.63;;
944;SDS011;459;48.676;9.034;2022-08-21T16:31:10;6.27;;;3.80;;
944;SDS011;459;48.676;9.034;2022-08-21T16:33:39;6.57;;;4.50;;
944;SDS011;459;48.676;9.034;2022-08-21T16:36:06;5.60;;;3.73;;
944;SDS011;459;48.676;9.034;2022-08-21T16:38:31;3.90;;;3.03;;
944;SDS011;459;48.676;9.034;2022-08-21T16:40:57;3.37;;;3.03;;
944;SDS011;459;48.676;9.034;2022-08-21T16:43:24;6.20;;;3.27;;
944;SDS011;459;48.676;9.034;2022-08-21T16:45:50;4.27;;;3.77;;
944;SDS011;459;48.676;9.034;2022-08-21T16:48:16;4.37;;;3.97;;